createdAt,value
2019-04-26T00:01:22.771Z,14.80
2019-04-26T00:03:51.715Z,14.80
2019-04-26T00:06:20.323Z,14.80
2019-04-26T00:09:06.415Z,14.70
2019-04-26T00:11:42.331Z,14.70
2019-04-26T00:14:24.238Z,14.60
2019-04-26T00:16:57.091Z,14.50
2019-04-26T00:19:25.693Z,14.50
2019-04-26T00:21:54.266Z,14.40
2019-04-26T00:24:22.914Z,14.40
2019-04-26T00:26:51.306Z,14.30
2019-04-26T00:29:19.630Z,14.20
2019-04-26T00:31:47.901Z,14.30
2019-04-26T00:34:16.186Z,14.30
2019-04-26T00:36:44.490Z,14.20
2019-04-26T00:39:13.341Z,14.20
2019-04-26T00:41:42.553Z,14.10
2019-04-26T00:44:10.864Z,14.10
2019-04-26T00:46:39.137Z,14.10
2019-04-26T00:49:07.455Z,14.10
2019-04-26T00:51:35.800Z,14.10
2019-04-26T00:54:04.172Z,14.10
2019-04-26T00:56:32.441Z,14.10
2019-04-26T00:59:00.760Z,14.00
2019-04-26T01:01:30.685Z,14.00
2019-04-26T01:03:58.997Z,14.10
2019-04-26T01:06:28.926Z,14.00
2019-04-26T01:08:57.208Z,13.90
2019-04-26T01:11:26.057Z,13.90
2019-04-26T01:13:54.370Z,13.90
2019-04-26T01:16:22.618Z,13.90
2019-04-26T01:18:50.863Z,13.90
2019-04-26T01:21:19.220Z,13.80
2019-04-26T01:23:47.451Z,13.80
2019-04-26T01:26:27.718Z,13.70
2019-04-26T01:29:01.845Z,13.80
2019-04-26T01:31:30.123Z,13.80
2019-04-26T01:34:01.494Z,13.80
2019-04-26T01:36:29.854Z,13.70
2019-04-26T01:39:01.405Z,13.70
2019-04-26T01:41:34.253Z,13.60
2019-04-26T01:44:04.151Z,13.50
2019-04-26T01:46:40.476Z,13.50
2019-04-26T01:49:09.322Z,13.40
2019-04-26T01:51:46.644Z,13.40
2019-04-26T01:54:16.852Z,13.60
2019-04-26T01:56:45.102Z,13.60
2019-04-26T01:59:13.354Z,13.60
2019-04-26T02:01:52.338Z,13.50
2019-04-26T02:04:22.463Z,13.40
2019-04-26T02:06:50.781Z,13.40
2019-04-26T02:09:19.083Z,13.40
2019-04-26T02:11:47.386Z,13.30
2019-04-26T02:14:15.653Z,13.30
2019-04-26T02:16:43.934Z,13.30
2019-04-26T02:19:12.213Z,13.30
2019-04-26T02:21:47.798Z,13.40
2019-04-26T02:24:20.376Z,13.30
2019-04-26T02:26:48.673Z,13.20
2019-04-26T02:29:26.918Z,13.10
2019-04-26T02:31:57.505Z,13.20
2019-04-26T02:34:27.937Z,13.20
2019-04-26T02:36:58.903Z,13.10
2019-04-26T02:39:38.495Z,13.00
2019-04-26T02:42:10.083Z,13.00
2019-04-26T02:44:45.076Z,12.90
2019-04-26T02:47:30.955Z,12.80
2019-04-26T02:50:05.056Z,12.70
2019-04-26T02:52:54.382Z,12.60
2019-04-26T02:55:56.054Z,12.60
2019-04-26T02:58:25.305Z,12.50
2019-04-26T03:00:53.620Z,12.40
2019-04-26T03:03:22.193Z,12.40
2019-04-26T03:05:50.538Z,12.30
2019-04-26T03:08:19.688Z,12.10
2019-04-26T03:10:49.719Z,12.00
2019-04-26T03:13:22.570Z,12.10
2019-04-26T03:16:08.234Z,12.10
2019-04-26T03:18:50.038Z,11.90
2019-04-26T03:21:39.446Z,11.90
2019-04-26T03:24:13.563Z,11.90
2019-04-26T03:26:56.922Z,12.10
2019-04-26T03:29:37.424Z,12.10
2019-04-26T03:32:21.512Z,12.10
2019-04-26T03:35:21.585Z,12.20
2019-04-26T03:37:57.625Z,12.20
2019-04-26T03:40:48.595Z,12.30
2019-04-26T03:43:22.830Z,12.30
2019-04-26T03:45:57.077Z,12.30
2019-04-26T03:48:31.351Z,12.20
2019-04-26T03:51:19.213Z,12.10
2019-04-26T03:53:50.715Z,12.10
2019-04-26T03:56:26.769Z,12.00
2019-04-26T03:59:07.875Z,12.00
2019-04-26T04:01:39.428Z,11.90
2019-04-26T04:04:26.238Z,11.80
2019-04-26T04:07:03.704Z,11.80
2019-04-26T04:09:24.422Z,11.70
2019-04-26T04:12:12.402Z,11.60
2019-04-26T04:14:45.264Z,11.50
2019-04-26T04:17:21.648Z,11.40
2019-04-26T04:20:00.434Z,11.30
2019-04-26T04:22:34.840Z,11.20
2019-04-26T04:25:14.883Z,11.20
2019-04-26T04:27:49.422Z,11.20
2019-04-26T04:30:29.391Z,11.10
2019-04-26T04:33:03.449Z,11.00
2019-04-26T04:35:32.867Z,11.00
2019-04-26T04:38:15.955Z,10.90
2019-04-26T04:41:12.667Z,10.80
2019-04-26T04:43:50.479Z,10.70
2019-04-26T04:46:47.466Z,10.70
2019-04-26T04:49:26.001Z,10.70
2019-04-26T04:51:57.500Z,10.50
2019-04-26T04:54:39.466Z,10.50
2019-04-26T04:57:16.974Z,10.40
2019-04-26T05:00:06.479Z,10.40
2019-04-26T05:02:50.915Z,10.40
2019-04-26T05:05:32.507Z,10.40
2019-04-26T05:08:18.935Z,10.50
2019-04-26T05:10:54.129Z,10.50
2019-04-26T05:13:28.537Z,10.50
2019-04-26T05:16:22.727Z,10.40
2019-04-26T05:18:52.725Z,10.30
2019-04-26T05:21:41.501Z,10.20
2019-04-26T05:24:39.973Z,10.10
2019-04-26T05:27:31.052Z,10.10
2019-04-26T05:30:36.817Z,10.10
2019-04-26T05:33:11.080Z,10.00
2019-04-26T05:36:00.699Z,10.00
2019-04-26T05:38:41.070Z,9.90
2019-04-26T05:41:19.180Z,9.80
2019-04-26T05:44:11.558Z,9.80
2019-04-26T05:46:53.619Z,9.90
2019-04-26T05:49:43.455Z,10.00
2019-04-26T05:52:34.428Z,10.00
2019-04-26T05:55:27.910Z,10.00
2019-04-26T05:58:16.067Z,10.10
2019-04-26T06:00:55.741Z,10.20
2019-04-26T06:03:52.247Z,10.20
2019-04-26T06:06:39.891Z,10.30
2019-04-26T06:09:24.533Z,10.50
2019-04-26T06:12:09.200Z,10.50
2019-04-26T06:15:09.022Z,10.60
2019-04-26T06:18:05.846Z,10.70
2019-04-26T06:20:45.179Z,10.80
2019-04-26T06:23:40.477Z,10.70
2019-04-26T06:26:46.230Z,10.80
2019-04-26T06:29:17.746Z,10.90
2019-04-26T06:31:51.707Z,11.10
2019-04-26T06:34:48.572Z,11.10
2019-04-26T06:37:36.293Z,11.10
2019-04-26T06:40:15.120Z,11.10
2019-04-26T06:43:03.344Z,11.30
2019-04-26T06:45:47.927Z,11.40
2019-04-26T06:48:25.762Z,11.60
2019-04-26T06:51:24.277Z,11.90
2019-04-26T06:54:03.430Z,12.20
2019-04-26T06:56:37.631Z,12.10
2019-04-26T06:59:21.243Z,12.10
2019-04-26T07:01:51.878Z,12.20
2019-04-26T07:04:26.373Z,12.40
2019-04-26T07:07:13.422Z,12.70
2019-04-26T07:10:04.053Z,12.80
2019-04-26T07:12:36.504Z,12.80
2019-04-26T07:15:28.842Z,13.00
2019-04-26T07:18:12.854Z,13.30
2019-04-26T07:20:48.880Z,13.50
2019-04-26T07:23:27.739Z,13.50
2019-04-26T07:26:16.982Z,13.70
2019-04-26T07:28:54.494Z,13.50
2019-04-26T07:31:38.171Z,13.50
2019-04-26T07:34:42.380Z,13.70
2019-04-26T07:37:33.267Z,13.90
2019-04-26T07:40:27.024Z,14.10
2019-04-26T07:43:16.628Z,14.00
2019-04-26T07:45:49.814Z,14.20
2019-04-26T07:48:41.659Z,14.10
2019-04-26T07:51:37.272Z,13.80
2019-04-26T07:54:41.911Z,13.70
2019-04-26T07:57:14.112Z,13.40
2019-04-26T08:00:08.895Z,13.20
2019-04-26T08:02:56.597Z,13.30
2019-04-26T08:05:46.884Z,13.60
2019-04-26T08:08:20.283Z,13.80
2019-04-26T08:11:11.434Z,14.00
2019-04-26T08:13:45.658Z,14.10
2019-04-26T08:16:31.928Z,14.30
2019-04-26T08:19:08.467Z,14.10
2019-04-26T08:21:42.508Z,14.30
2019-04-26T08:24:24.542Z,14.20
2019-04-26T08:27:08.957Z,14.40
2019-04-26T08:29:33.334Z,14.30
2019-04-26T08:32:01.763Z,14.70
2019-04-26T08:34:33.735Z,14.80
2019-04-26T08:37:03.268Z,14.80
2019-04-26T08:39:44.937Z,14.90
2019-04-26T08:42:05.058Z,14.90
2019-04-26T08:44:41.044Z,14.80
2019-04-26T08:47:16.410Z,14.70
2019-04-26T08:50:00.006Z,14.80
2019-04-26T08:52:29.612Z,14.80
2019-04-26T08:54:57.926Z,14.50
2019-04-26T08:57:27.210Z,14.30
2019-04-26T08:59:55.824Z,14.30
2019-04-26T09:02:45.795Z,14.30
2019-04-26T09:05:24.625Z,14.20
2019-04-26T09:07:57.556Z,14.20
2019-04-26T09:10:24.931Z,14.30
2019-04-26T09:12:53.230Z,14.30
2019-04-26T09:15:24.737Z,14.30
2019-04-26T09:17:53.002Z,14.60
2019-04-26T09:20:28.494Z,14.50
2019-04-26T09:22:56.667Z,14.60
2019-04-26T09:25:34.115Z,14.50
2019-04-26T09:28:02.049Z,14.40
2019-04-26T09:30:34.239Z,14.30
2019-04-26T09:33:06.592Z,14.30
2019-04-26T09:35:34.860Z,14.20
2019-04-26T09:38:03.136Z,13.90
2019-04-26T09:40:31.543Z,13.60
2019-04-26T09:43:10.478Z,13.40
2019-04-26T09:45:55.036Z,13.10
2019-04-26T09:48:24.915Z,13.10
2019-04-26T09:50:54.882Z,13.20
2019-04-26T09:53:23.126Z,13.30
2019-04-26T09:55:51.403Z,13.30
2019-04-26T09:58:19.702Z,13.30
2019-04-26T10:00:48.504Z,13.20
2019-04-26T10:03:17.901Z,13.20
2019-04-26T10:05:46.216Z,13.20
2019-04-26T10:08:14.623Z,13.10
2019-04-26T10:10:42.853Z,12.70
2019-04-26T10:13:29.901Z,12.60
2019-04-26T10:16:02.616Z,12.40
2019-04-26T10:18:29.828Z,12.30
2019-04-26T10:20:58.099Z,12.10
2019-04-26T10:23:26.342Z,12.10
2019-04-26T10:25:54.609Z,12.10
2019-04-26T10:28:22.852Z,12.10
2019-04-26T10:30:51.268Z,11.90
2019-04-26T10:33:19.548Z,11.60
2019-04-26T10:35:47.778Z,11.50
2019-04-26T10:38:19.443Z,11.50
2019-04-26T10:40:46.029Z,11.60
2019-04-26T10:43:14.475Z,11.70
2019-04-26T10:45:45.964Z,11.70
2019-04-26T10:48:14.033Z,11.80
2019-04-26T10:50:42.690Z,11.80
2019-04-26T10:53:12.572Z,11.60
2019-04-26T10:55:42.492Z,11.40
2019-04-26T10:58:18.215Z,11.30
2019-04-26T11:00:52.796Z,11.10
2019-04-26T11:03:20.842Z,11.00
2019-04-26T11:05:49.296Z,10.70
2019-04-26T11:08:19.070Z,10.60
2019-04-26T11:10:48.863Z,10.60
2019-04-26T11:13:17.294Z,10.60
2019-04-26T11:15:45.956Z,10.60
2019-04-26T11:18:14.210Z,10.60
2019-04-26T11:20:45.658Z,10.70
2019-04-26T11:23:12.934Z,10.50
2019-04-26T11:25:41.193Z,10.40
2019-04-26T11:28:09.447Z,10.40
2019-04-26T11:30:37.690Z,10.40
2019-04-26T11:33:07.250Z,10.20
2019-04-26T11:35:36.148Z,10.20
2019-04-26T11:38:04.488Z,10.10
2019-04-26T11:40:32.808Z,10.20
2019-04-26T11:43:01.064Z,10.20
2019-04-26T11:45:29.349Z,10.00
2019-04-26T11:47:57.631Z,10.00
2019-04-26T11:50:25.859Z,10.10
2019-04-26T11:52:54.175Z,9.80
2019-04-26T11:55:25.225Z,9.70
2019-04-26T11:57:52.376Z,9.50
2019-04-26T12:00:22.286Z,9.30
2019-04-26T12:02:52.003Z,9.20
2019-04-26T12:05:37.923Z,9.00
2019-04-26T12:08:07.800Z,9.00
2019-04-26T12:10:36.124Z,8.90
2019-04-26T12:13:06.851Z,8.90
2019-04-26T12:15:34.383Z,8.80
2019-04-26T12:18:05.478Z,8.80
2019-04-26T12:20:32.848Z,8.70
2019-04-26T12:23:01.101Z,8.80
2019-04-26T12:25:31.066Z,8.80
2019-04-26T12:28:01.918Z,8.50
2019-04-26T12:30:29.461Z,8.40
2019-04-26T12:32:57.715Z,8.50
2019-04-26T12:35:25.953Z,8.40
2019-04-26T12:37:54.771Z,8.40
2019-04-26T12:40:24.017Z,8.30
2019-04-26T12:42:52.270Z,8.20
2019-04-26T12:45:31.211Z,8.10
2019-04-26T12:48:01.087Z,8.20
2019-04-26T12:50:32.979Z,8.20
2019-04-26T12:52:59.325Z,8.20
2019-04-26T12:55:27.631Z,8.10
2019-04-26T12:57:55.949Z,8.10
2019-04-26T13:00:25.843Z,8.00
2019-04-26T13:02:55.662Z,7.90
2019-04-26T13:05:24.008Z,7.90
2019-04-26T13:07:53.718Z,7.90
2019-04-26T13:10:39.493Z,7.90
2019-04-26T13:13:09.388Z,7.80
2019-04-26T13:15:58.869Z,7.70
2019-04-26T13:18:27.205Z,7.70
2019-04-26T13:20:58.562Z,8.00
2019-04-26T13:23:29.417Z,8.10
2019-04-26T13:25:59.114Z,8.10
2019-04-26T13:28:25.372Z,8.00
2019-04-26T13:30:53.610Z,8.00
2019-04-26T13:33:23.288Z,8.00
2019-04-26T13:36:02.832Z,8.00
2019-04-26T13:38:21.758Z,7.80
2019-04-26T13:40:49.982Z,7.90
2019-04-26T13:43:18.210Z,7.70
2019-04-26T13:45:51.015Z,7.80
2019-04-26T13:48:29.590Z,7.80
2019-04-26T13:51:14.362Z,7.80
2019-04-26T13:53:42.634Z,7.80
2019-04-26T13:56:10.907Z,7.70
2019-04-26T13:58:39.135Z,7.80
2019-04-26T14:01:08.187Z,7.70
2019-04-26T14:03:36.427Z,7.80
2019-04-26T14:06:04.674Z,7.50
2019-04-26T14:08:32.902Z,7.30
2019-04-26T14:11:01.137Z,7.30
2019-04-26T14:13:29.428Z,7.40
2019-04-26T14:15:57.673Z,7.50
2019-04-26T14:18:26.195Z,7.60
2019-04-26T14:20:54.885Z,7.50
2019-04-26T14:23:33.542Z,7.40
2019-04-26T14:26:05.232Z,7.30
2019-04-26T14:28:33.351Z,7.20
2019-04-26T14:31:01.588Z,7.20
2019-04-26T14:33:30.862Z,7.30
2019-04-26T14:35:59.815Z,7.50
2019-04-26T14:38:35.691Z,7.30
2019-04-26T14:41:03.985Z,7.40
2019-04-26T14:43:40.068Z,7.50
2019-04-26T14:45:58.061Z,7.70
2019-04-26T14:48:35.819Z,7.80
2019-04-26T14:51:07.393Z,7.80
2019-04-26T14:53:26.249Z,7.80
2019-04-26T14:55:55.583Z,7.70
2019-04-26T14:58:29.862Z,7.90
2019-04-26T15:00:58.056Z,7.70
2019-04-26T15:03:27.077Z,7.60
2019-04-26T15:06:16.797Z,7.60
2019-04-26T15:08:48.573Z,7.60
2019-04-26T15:11:14.774Z,7.60
2019-04-26T15:13:43.735Z,7.50
2019-04-26T15:16:14.180Z,7.30
2019-04-26T15:18:42.685Z,7.30
2019-04-26T15:21:12.737Z,7.20
2019-04-26T15:23:41.146Z,7.10
2019-04-26T15:26:09.386Z,7.20
2019-04-26T15:28:37.622Z,7.30
2019-04-26T15:31:05.863Z,7.30
2019-04-26T15:33:35.895Z,7.20
2019-04-26T15:36:06.278Z,7.20
2019-04-26T15:38:40.986Z,7.00
2019-04-26T15:41:11.467Z,7.10
2019-04-26T15:43:37.414Z,7.20
2019-04-26T15:46:16.453Z,7.10
2019-04-26T15:49:04.717Z,7.20
2019-04-26T15:51:33.104Z,7.20
2019-04-26T15:54:01.344Z,7.20
2019-04-26T15:56:29.592Z,7.10
2019-04-26T15:58:57.903Z,7.20
2019-04-26T16:01:26.195Z,7.30
2019-04-26T16:03:54.522Z,7.30
2019-04-26T16:06:23.636Z,7.50
2019-04-26T16:08:52.187Z,7.40
2019-04-26T16:11:24.017Z,7.30
2019-04-26T16:13:55.426Z,7.40
2019-04-26T16:16:27.946Z,7.40
2019-04-26T16:18:53.965Z,7.30
2019-04-26T16:21:22.329Z,7.30
2019-04-26T16:23:53.654Z,7.30
2019-04-26T16:26:20.571Z,7.30
2019-04-26T16:28:50.500Z,7.10
2019-04-26T16:31:23.331Z,7.20
2019-04-26T16:34:06.589Z,7.10
2019-04-26T16:36:32.285Z,7.20
2019-04-26T16:39:02.567Z,7.20
2019-04-26T16:41:35.982Z,7.40
2019-04-26T16:44:02.640Z,7.60
2019-04-26T16:46:33.141Z,7.80
2019-04-26T16:49:03.764Z,7.90
2019-04-26T16:51:30.775Z,8.00
2019-04-26T16:54:06.795Z,7.80
2019-04-26T16:56:29.131Z,7.80
2019-04-26T16:58:57.430Z,7.80
2019-04-26T17:01:25.764Z,7.80
2019-04-26T17:03:54.079Z,7.80
2019-04-26T17:06:23.326Z,7.90
2019-04-26T17:08:58.739Z,7.90
2019-04-26T17:11:22.947Z,7.90
2019-04-26T17:13:56.418Z,7.90
2019-04-26T17:16:22.155Z,7.90
2019-04-26T17:18:51.294Z,7.90
2019-04-26T17:21:23.845Z,7.90
2019-04-26T17:23:53.039Z,7.90
2019-04-26T17:26:24.398Z,8.00
2019-04-26T17:28:55.464Z,7.90
2019-04-26T17:31:22.901Z,7.90
2019-04-26T17:33:51.161Z,8.00
2019-04-26T17:36:19.449Z,8.00
2019-04-26T17:38:47.821Z,7.90
2019-04-26T17:41:16.066Z,8.00
2019-04-26T17:43:47.431Z,8.00
2019-04-26T18:00:07.341Z,7.90
2019-04-26T18:02:54.367Z,7.90
2019-04-26T19:06:10.718Z,7.90
2019-04-26T19:11:52.407Z,7.80
2019-04-26T19:14:49.057Z,7.80
2019-04-26T19:24:33.061Z,7.80
2019-04-26T19:36:22.648Z,7.70
2019-04-26T19:45:33.976Z,7.60
2019-04-26T19:49:25.687Z,7.60
2019-04-26T19:55:11.326Z,7.50
2019-04-26T19:57:45.355Z,7.40
2019-04-26T20:00:28.562Z,7.30
2019-04-26T20:03:02.128Z,7.30
2019-04-26T20:05:32.429Z,7.30
2019-04-26T20:08:15.356Z,7.30
2019-04-26T20:11:18.516Z,7.40
2019-04-26T20:13:35.565Z,7.40
2019-04-26T20:16:05.923Z,7.50
2019-04-26T20:18:42.090Z,7.40
2019-04-26T20:21:15.491Z,7.40
2019-04-26T20:23:47.329Z,7.40
2019-04-26T20:26:16.228Z,7.50
2019-04-26T20:28:49.338Z,7.40
2019-04-26T20:31:31.080Z,7.40
2019-04-26T20:34:10.986Z,7.50
2019-04-26T20:36:41.436Z,7.40
2019-04-26T20:39:12.444Z,7.40
2019-04-26T20:41:43.401Z,7.50
2019-04-26T20:44:14.705Z,7.60
2019-04-26T20:46:48.057Z,7.60
2019-04-26T20:49:32.673Z,7.40
2019-04-26T20:51:56.875Z,7.30
2019-04-26T20:54:31.649Z,7.20
2019-04-26T20:57:01.782Z,7.10
2019-04-26T20:59:31.640Z,7.10
2019-04-26T21:02:07.592Z,7.00
2019-04-26T21:04:38.365Z,7.10
2019-04-26T21:07:11.369Z,7.00
2019-04-26T21:09:43.473Z,7.00
2019-04-26T21:12:18.798Z,7.20
2019-04-26T21:14:54.286Z,7.20
2019-04-26T21:17:27.749Z,7.20
2019-04-26T21:19:58.427Z,7.20
2019-04-26T21:22:31.801Z,7.10
2019-04-26T21:29:35.078Z,7.10
2019-04-26T21:32:09.405Z,7.10
2019-04-26T21:34:44.914Z,7.10
2019-04-26T21:37:28.931Z,7.20
2019-04-26T21:40:09.048Z,7.20
2019-04-26T21:42:36.461Z,7.30
2019-04-26T21:45:10.587Z,7.40
2019-04-26T21:47:40.261Z,7.40
2019-04-26T21:50:10.324Z,7.40
2019-04-26T21:52:54.011Z,7.50
2019-04-26T21:55:43.425Z,7.50
2019-04-26T21:58:25.067Z,7.50
2019-04-26T22:01:03.138Z,7.40
2019-04-26T22:03:47.325Z,7.50
2019-04-26T22:06:26.808Z,7.40
2019-04-26T22:09:05.457Z,7.40
2019-04-26T22:11:49.467Z,7.40
2019-04-26T22:14:24.698Z,7.40
2019-04-26T22:17:01.992Z,7.50
2019-04-26T22:19:45.832Z,7.40
2019-04-26T22:22:25.286Z,7.50
2019-04-26T22:25:17.626Z,7.50
2019-04-26T22:31:18.630Z,7.50
2019-04-26T22:36:47.734Z,7.60
2019-04-26T22:48:36.954Z,7.40
2019-04-26T22:51:16.504Z,7.50
2019-04-26T22:54:15.048Z,7.50
2019-04-26T22:56:56.373Z,7.50
2019-04-26T23:02:33.519Z,7.40
2019-04-26T23:05:55.023Z,7.40
2019-04-26T23:08:03.282Z,7.40
2019-04-26T23:10:53.114Z,7.40
2019-04-26T23:13:55.446Z,7.50
2019-04-26T23:16:40.436Z,7.50
2019-04-26T23:19:10.273Z,7.50
2019-04-26T23:21:52.855Z,7.40
2019-04-26T23:24:23.691Z,7.50
2019-04-26T23:29:58.303Z,7.50
2019-04-26T23:32:48.379Z,7.50
2019-04-26T23:35:23.939Z,7.50
2019-04-26T23:38:00.919Z,7.50
2019-04-26T23:53:08.160Z,7.60
